Esadore Lake, Wisconsin
Current Conditions -  °F | °C
As of 9:15 AM on Friday 31 Oct 2014 (Local Time) from KMDZ Reporting Station
Overcast Overcast  
Wind Chill: 17°   Ceiling: 2300
Heat Index: 29°   Visibility: 10mi
Dew Point: 23°   Wind: 17mph
Humidity: 77%   Direction: 10°N
Pressure: 30.36"   Gusts: 24mph
Location:  45.2044°N, 90.4212°W
Report Text: KMDZ 311415Z AUTO 01015G21KT 10SM OVC023 M02/M05 A3036 RMK AO2 T10171052
Loading
Personal Weather Stations






























Interactive Weather Map
Tropical Storm Tracking
New forecast layout! Learn more

10-Day Weather Forecast

Advertisements
Track Severe Weather on mobile